Aviation Digital Data Service (ADDS)

Output produced by METARs form (1741 UTC 03 December 2016)
found at http://aviationweather.gov/adds/metars/
 
KSSI 031723Z 0318/0418 04012KT P6SM FEW035 BKN120 
     FM040200 04007KT P6SM SCT030 BKN080 
     FM040700 04007KT P6SM BKN025 BKN080 
     FM041400 08011KT P6SM SCT030 BKN080